createdAt,value
2017-12-24T00:01:46.393Z,13.13
2017-12-24T00:04:15.550Z,13.47
2017-12-24T00:06:44.577Z,12.40
2017-12-24T00:09:12.852Z,12.07
2017-12-24T00:11:41.160Z,11.93
2017-12-24T00:14:09.440Z,11.57
2017-12-24T00:16:38.010Z,12.17
2017-12-24T00:19:06.268Z,12.40
2017-12-24T00:21:36.113Z,12.80
2017-12-24T00:24:04.416Z,13.30
2017-12-24T00:26:33.467Z,11.93
2017-12-24T00:29:01.735Z,13.17
2017-12-24T00:31:30.151Z,13.57
2017-12-24T00:33:58.383Z,12.97
2017-12-24T00:36:26.669Z,11.07
2017-12-24T00:38:55.882Z,13.63
2017-12-24T00:41:24.925Z,10.47
2017-12-24T00:43:53.195Z,11.07
2017-12-24T00:46:21.650Z,12.17
2017-12-24T00:48:49.900Z,11.53
2017-12-24T00:51:18.152Z,9.93
2017-12-24T00:53:46.439Z,10.17
2017-12-24T00:56:14.696Z,10.97
2017-12-24T00:58:44.557Z,10.27
2017-12-24T01:01:12.852Z,10.13
2017-12-24T01:03:41.123Z,9.90
2017-12-24T01:06:10.145Z,11.70
2017-12-24T01:08:38.440Z,11.00
2017-12-24T01:11:07.222Z,10.37
2017-12-24T01:13:35.488Z,11.30
2017-12-24T01:16:03.769Z,11.13
2017-12-24T01:18:32.955Z,10.07
2017-12-24T01:21:02.118Z,9.60
2017-12-24T01:23:31.164Z,10.47
2017-12-24T01:25:59.423Z,9.93
2017-12-24T01:28:28.440Z,9.53
2017-12-24T01:30:56.762Z,10.10
2017-12-24T01:33:25.003Z,9.97
2017-12-24T01:35:53.280Z,9.97
2017-12-24T01:38:21.881Z,9.80
2017-12-24T01:40:50.180Z,10.67
2017-12-24T01:43:18.486Z,9.47
2017-12-24T01:45:48.337Z,8.07
2017-12-24T01:48:16.590Z,9.37
2017-12-24T01:50:44.853Z,8.17
2017-12-24T01:53:13.121Z,8.40
2017-12-24T01:55:41.384Z,7.60
2017-12-24T01:58:10.450Z,9.07
2017-12-24T02:00:38.724Z,7.67
2017-12-24T02:03:07.018Z,9.10
2017-12-24T02:05:35.295Z,8.53
2017-12-24T02:08:04.335Z,8.13
2017-12-24T02:10:32.600Z,7.60
2017-12-24T02:13:01.771Z,7.70
2017-12-24T02:15:30.019Z,7.93
2017-12-24T02:17:58.296Z,7.03
2017-12-24T02:20:26.532Z,6.30
2017-12-24T02:22:55.040Z,8.13
2017-12-24T02:25:23.333Z,7.60
2017-12-24T02:27:51.564Z,6.47
2017-12-24T02:30:19.888Z,6.77
2017-12-24T02:32:48.286Z,6.67
2017-12-24T02:35:17.312Z,6.37
2017-12-24T02:37:46.513Z,7.00
2017-12-24T02:40:14.783Z,7.57
2017-12-24T02:42:43.045Z,7.27
2017-12-24T02:45:12.129Z,7.50
2017-12-24T02:47:40.396Z,6.87
2017-12-24T02:50:08.652Z,6.97
2017-12-24T02:52:36.956Z,7.00
2017-12-24T02:55:05.300Z,7.13
2017-12-24T02:57:35.281Z,6.43
2017-12-24T03:00:03.573Z,6.50
2017-12-24T03:02:31.861Z,7.70
2017-12-24T03:05:00.099Z,7.53
2017-12-24T03:07:28.384Z,7.27
2017-12-24T03:09:56.678Z,8.03
2017-12-24T03:12:25.151Z,7.07
2017-12-24T03:14:53.558Z,7.93
2017-12-24T03:17:21.881Z,8.83
2017-12-24T03:19:51.126Z,7.70
2017-12-24T03:22:19.453Z,7.60
2017-12-24T03:24:47.712Z,8.60
2017-12-24T03:27:15.956Z,7.30
2017-12-24T03:29:44.405Z,7.50
2017-12-24T03:32:12.646Z,8.30
2017-12-24T03:34:42.645Z,7.73
2017-12-24T03:37:11.796Z,8.20
2017-12-24T03:39:40.048Z,8.07
2017-12-24T03:42:08.297Z,8.80
2017-12-24T03:44:37.178Z,7.23
2017-12-24T03:47:05.446Z,8.00
2017-12-24T03:49:33.705Z,8.60
2017-12-24T03:52:02.041Z,6.27
2017-12-24T03:54:31.777Z,6.30
2017-12-24T03:57:00.041Z,6.30
2017-12-24T03:59:28.333Z,6.40
2017-12-24T04:01:56.587Z,6.70
2017-12-24T04:04:24.831Z,9.70
2017-12-24T04:06:53.127Z,6.90
2017-12-24T04:09:21.384Z,6.73
2017-12-24T04:11:50.652Z,6.90
2017-12-24T04:14:20.484Z,5.67
2017-12-24T04:16:48.776Z,7.90
2017-12-24T04:19:17.904Z,5.83
2017-12-24T04:21:46.937Z,7.17
2017-12-24T04:24:16.140Z,7.60
2017-12-24T04:26:45.965Z,6.00
2017-12-24T04:29:14.236Z,8.47
2017-12-24T04:31:42.517Z,7.90
2017-12-24T04:34:10.788Z,7.90
2017-12-24T04:36:39.068Z,8.60
2017-12-24T04:39:07.340Z,6.73
2017-12-24T04:41:35.592Z,8.70
2017-12-24T04:44:03.880Z,7.53
2017-12-24T04:46:32.455Z,6.07
2017-12-24T04:49:01.524Z,6.30
2017-12-24T04:51:30.546Z,5.53
2017-12-24T04:53:58.855Z,7.17
2017-12-24T04:56:27.225Z,5.67
2017-12-24T04:58:55.693Z,5.07
2017-12-24T05:01:24.010Z,4.83
2017-12-24T05:03:52.254Z,5.10
2017-12-24T05:06:20.499Z,4.93
2017-12-24T05:08:48.792Z,5.23
2017-12-24T05:11:17.168Z,5.63
2017-12-24T05:13:45.436Z,5.17
2017-12-24T05:16:13.708Z,4.20
2017-12-24T05:18:41.990Z,4.70
2017-12-24T05:21:10.260Z,4.67
2017-12-24T05:23:38.554Z,7.47
2017-12-24T05:26:06.804Z,3.67
2017-12-24T05:28:35.120Z,4.03
2017-12-24T05:31:03.413Z,4.10
2017-12-24T05:33:31.677Z,3.80
2017-12-24T05:35:59.961Z,4.07
2017-12-24T05:38:28.213Z,4.27
2017-12-24T05:40:56.460Z,4.67
2017-12-24T05:43:24.749Z,4.63
2017-12-24T05:45:53.869Z,3.87
2017-12-24T05:48:22.164Z,4.13
2017-12-24T05:50:51.269Z,7.17
2017-12-24T05:53:20.260Z,4.60
2017-12-24T05:55:48.521Z,3.70
2017-12-24T05:58:17.383Z,4.07
2017-12-24T06:00:45.670Z,3.73
2017-12-24T06:03:13.976Z,3.73
2017-12-24T06:05:42.232Z,4.10
2017-12-24T06:08:10.544Z,4.10
2017-12-24T06:10:38.824Z,3.73
2017-12-24T06:13:07.140Z,3.83
2017-12-24T06:15:35.428Z,4.53
2017-12-24T06:18:03.736Z,3.90
2017-12-24T06:20:32.021Z,3.97
2017-12-24T06:23:00.921Z,5.40
2017-12-24T06:25:29.186Z,3.70
2017-12-24T06:27:57.445Z,4.53
2017-12-24T06:30:25.753Z,4.57
2017-12-24T06:32:55.534Z,4.70
2017-12-24T06:35:24.596Z,4.07
2017-12-24T06:37:52.877Z,3.43
2017-12-24T06:40:21.112Z,4.40
2017-12-24T06:42:50.185Z,4.87
2017-12-24T06:45:18.450Z,4.77
2017-12-24T06:47:46.759Z,3.87
2017-12-24T06:50:15.016Z,4.73
2017-12-24T06:52:43.966Z,4.43
2017-12-24T06:55:12.237Z,4.63
2017-12-24T06:57:40.487Z,4.10
2017-12-24T07:00:08.752Z,5.23
2017-12-24T07:02:37.227Z,5.33
2017-12-24T07:05:05.490Z,6.60
2017-12-24T07:07:33.741Z,5.43
2017-12-24T07:10:02.028Z,5.80
2017-12-24T07:12:31.450Z,4.53
2017-12-24T07:14:59.713Z,4.90
2017-12-24T07:17:27.992Z,5.83
2017-12-24T07:19:56.424Z,5.03
2017-12-24T07:22:24.815Z,4.27
2017-12-24T07:24:53.808Z,5.60
2017-12-24T07:27:22.090Z,5.40
2017-12-24T07:29:51.161Z,10.43
2017-12-24T07:32:20.325Z,6.83
2017-12-24T07:34:48.718Z,6.73
2017-12-24T07:37:17.433Z,7.60
2017-12-24T07:39:45.689Z,5.43
2017-12-24T07:42:14.009Z,4.90
2017-12-24T07:44:42.489Z,4.07
2017-12-24T07:47:10.861Z,3.77
2017-12-24T07:49:39.869Z,3.10
2017-12-24T07:52:08.157Z,3.33
2017-12-24T07:54:36.424Z,3.17
2017-12-24T07:57:05.663Z,3.73
2017-12-24T07:59:34.690Z,3.60
2017-12-24T08:02:02.940Z,2.83
2017-12-24T08:04:31.961Z,4.40
2017-12-24T08:07:00.236Z,3.60
2017-12-24T08:09:28.482Z,3.50
2017-12-24T08:11:58.239Z,4.30
2017-12-24T08:14:26.505Z,4.90
2017-12-24T08:16:54.743Z,3.47
2017-12-24T08:19:23.071Z,3.13
2017-12-24T08:21:51.465Z,3.20
2017-12-24T08:24:20.630Z,2.50
2017-12-24T08:26:48.944Z,4.03
2017-12-24T08:29:17.296Z,2.43
2017-12-24T08:31:46.569Z,2.97
2017-12-24T08:34:14.841Z,2.93
2017-12-24T08:36:43.153Z,3.20
2017-12-24T08:39:12.347Z,3.00
2017-12-24T08:41:40.615Z,2.87
2017-12-24T08:44:09.645Z,2.10
2017-12-24T08:46:39.533Z,2.87
2017-12-24T08:49:07.800Z,2.00
2017-12-24T08:51:36.360Z,2.07
2017-12-24T08:54:04.598Z,2.57
2017-12-24T08:56:32.849Z,2.33
2017-12-24T08:59:01.147Z,2.03
2017-12-24T09:01:29.381Z,1.87
2017-12-24T09:03:57.850Z,1.53
2017-12-24T09:06:26.125Z,1.90
2017-12-24T09:08:54.399Z,2.60
2017-12-24T09:11:23.697Z,1.60
2017-12-24T09:13:52.217Z,1.57
2017-12-24T09:16:20.507Z,1.80
2017-12-24T09:18:49.533Z,3.03
2017-12-24T09:21:19.496Z,2.40
2017-12-24T09:23:48.549Z,5.70
2017-12-24T09:26:16.793Z,2.00
2017-12-24T09:28:45.131Z,1.70
2017-12-24T09:31:13.402Z,1.60
2017-12-24T09:33:41.677Z,2.10
2017-12-24T09:36:09.953Z,2.80
2017-12-24T09:38:38.204Z,2.97
2017-12-24T09:41:06.464Z,2.70
2017-12-24T09:43:34.716Z,1.93
2017-12-24T09:46:02.977Z,2.40
2017-12-24T09:48:31.228Z,1.97
2017-12-24T09:51:00.288Z,1.77
2017-12-24T09:53:29.328Z,1.87
2017-12-24T09:55:57.580Z,2.67
2017-12-24T09:58:26.704Z,2.67
2017-12-24T10:00:54.965Z,1.73
2017-12-24T10:03:23.220Z,1.40
2017-12-24T10:05:51.484Z,1.53
2017-12-24T10:08:19.755Z,1.40
2017-12-24T10:10:48.002Z,1.33
2017-12-24T10:13:18.783Z,1.67
2017-12-24T10:15:47.853Z,1.43
2017-12-24T10:18:16.107Z,1.33
2017-12-24T10:20:44.385Z,1.57
2017-12-24T10:23:12.643Z,1.60
2017-12-24T10:25:41.764Z,3.67
2017-12-24T10:28:10.081Z,2.87
2017-12-24T10:30:38.313Z,1.60
2017-12-24T10:33:06.631Z,1.73
2017-12-24T10:35:35.776Z,2.40
2017-12-24T10:38:04.042Z,1.80
2017-12-24T10:40:32.309Z,2.73
2017-12-24T10:43:01.793Z,2.30
2017-12-24T10:45:30.942Z,1.90
2017-12-24T10:47:59.198Z,2.37
2017-12-24T10:50:27.496Z,2.10
2017-12-24T10:52:55.743Z,2.90
2017-12-24T10:55:24.058Z,2.30
2017-12-24T10:57:52.416Z,1.83
2017-12-24T11:00:21.033Z,2.10
2017-12-24T11:02:49.347Z,2.20
2017-12-24T11:05:19.057Z,2.57
2017-12-24T11:07:47.339Z,3.17
2017-12-24T11:10:16.371Z,2.27
2017-12-24T11:12:46.519Z,1.87
2017-12-24T11:15:14.778Z,2.13
2017-12-24T11:17:43.085Z,2.47
2017-12-24T11:20:11.371Z,2.13
2017-12-24T11:22:40.624Z,3.47
2017-12-24T11:25:08.904Z,3.13
2017-12-24T11:27:37.181Z,2.50
2017-12-24T11:30:06.467Z,3.80
2017-12-24T11:32:35.564Z,3.00
2017-12-24T11:35:03.906Z,4.00
2017-12-24T11:37:32.199Z,3.10
2017-12-24T11:40:00.474Z,3.20
2017-12-24T11:42:29.489Z,4.10
2017-12-24T11:44:58.508Z,4.90
2017-12-24T11:47:26.832Z,2.97
2017-12-24T11:49:55.089Z,3.90
2017-12-24T11:52:23.809Z,3.60
2017-12-24T11:54:53.833Z,3.40
2017-12-24T11:57:22.159Z,2.70
2017-12-24T11:59:50.392Z,4.40
2017-12-24T12:02:18.654Z,3.70
2017-12-24T12:04:47.877Z,2.80
2017-12-24T12:07:16.133Z,3.37
2017-12-24T12:09:44.406Z,3.23
2017-12-24T12:12:12.676Z,2.33
2017-12-24T12:14:40.961Z,3.67
2017-12-24T12:17:09.262Z,2.57
2017-12-24T12:19:38.542Z,2.30
2017-12-24T12:22:06.810Z,2.50
2017-12-24T12:24:35.070Z,2.43
2017-12-24T12:27:04.181Z,2.83
2017-12-24T12:29:33.172Z,1.70
2017-12-24T12:32:02.315Z,2.23
2017-12-24T12:34:30.635Z,1.97
2017-12-24T12:36:59.736Z,4.23
2017-12-24T12:39:28.317Z,2.20
2017-12-24T12:41:58.205Z,2.00
2017-12-24T12:44:28.448Z,2.80
2017-12-24T12:46:56.745Z,1.77
2017-12-24T12:49:25.095Z,2.70
2017-12-24T12:51:53.350Z,2.10
2017-12-24T12:54:22.418Z,2.30
2017-12-24T12:56:52.123Z,1.93
2017-12-24T12:59:20.428Z,2.40
2017-12-24T13:01:48.936Z,1.87
2017-12-24T13:04:18.019Z,2.10
2017-12-24T13:06:47.216Z,1.70
2017-12-24T13:09:15.545Z,2.03
2017-12-24T13:11:43.795Z,2.17
2017-12-24T13:14:13.928Z,2.30
2017-12-24T13:16:43.007Z,4.57
2017-12-24T13:19:12.254Z,2.40
2017-12-24T13:21:40.743Z,2.30
2017-12-24T13:24:08.996Z,2.43
2017-12-24T13:26:37.280Z,3.07
2017-12-24T13:29:05.570Z,2.70
2017-12-24T13:31:35.395Z,2.33
2017-12-24T13:34:04.457Z,2.90
2017-12-24T13:36:32.731Z,2.40
2017-12-24T13:39:01.013Z,2.30
2017-12-24T13:41:29.302Z,3.20
2017-12-24T13:43:57.566Z,2.83
2017-12-24T13:46:25.840Z,2.60
2017-12-24T13:48:54.257Z,2.60
2017-12-24T13:51:22.509Z,2.57
2017-12-24T13:53:50.818Z,2.87
2017-12-24T13:56:19.128Z,2.53
2017-12-24T13:58:47.839Z,3.50
2017-12-24T14:01:16.108Z,2.63
2017-12-24T14:03:44.361Z,2.73
2017-12-24T14:06:12.634Z,2.63
2017-12-24T14:08:40.904Z,2.60
2017-12-24T14:11:09.187Z,2.87
2017-12-24T14:13:37.465Z,2.90
2017-12-24T14:16:05.728Z,2.67
2017-12-24T14:18:33.993Z,3.00
2017-12-24T14:21:02.277Z,2.80
2017-12-24T14:23:31.317Z,2.60
2017-12-24T14:25:59.622Z,2.77
2017-12-24T14:28:27.872Z,3.00
2017-12-24T14:30:56.129Z,3.03
2017-12-24T14:33:24.404Z,3.00
2017-12-24T14:35:52.659Z,2.90
2017-12-24T14:38:23.233Z,3.33
2017-12-24T14:40:52.098Z,3.17
2017-12-24T14:43:20.349Z,2.50
2017-12-24T14:45:49.412Z,3.37
2017-12-24T14:48:17.664Z,3.33
2017-12-24T14:50:46.108Z,5.37
2017-12-24T14:53:15.202Z,2.57
2017-12-24T14:55:43.440Z,5.20
2017-12-24T14:58:12.752Z,2.43
2017-12-24T15:00:40.980Z,2.97
2017-12-24T15:03:10.791Z,3.03
2017-12-24T15:05:39.083Z,3.23
2017-12-24T15:08:07.342Z,3.00
2017-12-24T15:10:35.633Z,3.10
2017-12-24T15:13:03.916Z,3.10
2017-12-24T15:15:32.192Z,3.27
2017-12-24T15:18:01.277Z,2.83
2017-12-24T15:20:29.533Z,2.80
2017-12-24T15:22:57.831Z,3.20
2017-12-24T15:25:26.071Z,4.10
2017-12-24T15:27:54.359Z,3.53
2017-12-24T15:30:22.700Z,3.13
2017-12-24T15:32:50.980Z,3.07
2017-12-24T15:35:20.063Z,3.00
2017-12-24T15:37:49.222Z,3.13
2017-12-24T15:40:17.756Z,3.43
2017-12-24T15:42:46.020Z,3.57
2017-12-24T15:45:14.277Z,3.30
2017-12-24T15:47:42.595Z,3.80
2017-12-24T15:50:11.879Z,4.87
2017-12-24T15:52:41.748Z,4.67
2017-12-24T15:55:10.104Z,4.90
2017-12-24T15:57:39.256Z,3.80
2017-12-24T16:00:07.527Z,3.73
2017-12-24T16:05:12.086Z,3.63
2017-12-24T16:07:40.378Z,4.03
2017-12-24T16:10:09.457Z,6.17
2017-12-24T16:12:38.684Z,5.30
2017-12-24T16:15:07.004Z,4.60
2017-12-24T16:17:35.576Z,4.60
2017-12-24T16:20:03.857Z,4.50
2017-12-24T16:22:32.142Z,5.37
2017-12-24T16:25:00.419Z,5.37
2017-12-24T16:27:28.721Z,4.90
2017-12-24T16:29:56.963Z,4.63
2017-12-24T16:32:25.240Z,4.87
2017-12-24T16:34:53.608Z,4.23
2017-12-24T16:37:21.889Z,4.33
2017-12-24T16:39:50.206Z,5.80
2017-12-24T16:42:18.466Z,4.83
2017-12-24T16:44:47.196Z,4.53
2017-12-24T16:47:16.212Z,5.10
2017-12-24T16:49:44.484Z,4.90
2017-12-24T16:52:12.775Z,5.70
2017-12-24T16:54:42.414Z,5.80
2017-12-24T16:57:10.679Z,5.50
2017-12-24T16:59:38.949Z,5.70
2017-12-24T17:02:07.212Z,5.63
2017-12-24T17:04:35.456Z,5.00
2017-12-24T17:07:04.532Z,5.30
2017-12-24T17:09:32.813Z,5.10
2017-12-24T17:12:02.059Z,5.23
2017-12-24T17:14:30.359Z,5.50
2017-12-24T17:16:58.609Z,5.50
2017-12-24T17:19:26.875Z,7.40
2017-12-24T17:21:56.032Z,6.13
2017-12-24T17:24:25.121Z,5.50
2017-12-24T17:26:53.379Z,8.20
2017-12-24T17:29:21.668Z,6.47
2017-12-24T17:31:50.820Z,13.23
2017-12-24T17:34:19.085Z,6.50
2017-12-24T17:36:47.373Z,9.10
2017-12-24T17:39:15.642Z,7.90
2017-12-24T17:41:43.899Z,6.10
2017-12-24T17:44:13.792Z,6.87
2017-12-24T17:46:42.986Z,6.90
2017-12-24T17:49:11.297Z,6.20
2017-12-24T17:51:39.583Z,5.83
2017-12-24T17:54:08.019Z,7.37
2017-12-24T17:56:36.277Z,6.93
2017-12-24T17:59:05.317Z,6.13
2017-12-24T18:01:34.394Z,6.50
2017-12-24T18:04:02.648Z,6.60
2017-12-24T18:06:31.450Z,5.53
2017-12-24T18:08:59.725Z,7.40
2017-12-24T18:11:28.772Z,5.50
2017-12-24T18:13:57.522Z,5.87
2017-12-24T18:16:25.781Z,5.73
2017-12-24T18:18:54.046Z,6.33
2017-12-24T18:21:23.411Z,6.43
2017-12-24T18:23:51.687Z,5.83
2017-12-24T18:26:19.961Z,5.33
2017-12-24T18:28:49.144Z,5.30
2017-12-24T18:31:18.216Z,5.23
2017-12-24T18:33:48.242Z,5.87
2017-12-24T18:36:16.655Z,5.47
2017-12-24T18:38:45.802Z,10.80
2017-12-24T18:41:14.872Z,6.70
2017-12-24T18:43:43.103Z,5.63
2017-12-24T18:46:11.660Z,6.37
2017-12-24T18:48:40.708Z,6.83
2017-12-24T18:51:09.052Z,6.80
2017-12-24T18:53:41.360Z,6.60
2017-12-24T18:56:10.393Z,6.77
2017-12-24T18:58:38.962Z,6.33
2017-12-24T19:01:07.225Z,6.17
2017-12-24T19:03:35.464Z,5.90
2017-12-24T19:06:04.132Z,6.40
2017-12-24T19:08:33.387Z,6.47
2017-12-24T19:11:01.794Z,6.43
2017-12-24T19:13:30.876Z,6.80
2017-12-24T19:15:59.118Z,6.43
2017-12-24T19:18:28.424Z,6.23
2017-12-24T19:20:56.918Z,5.77
2017-12-24T19:23:25.228Z,5.97
2017-12-24T19:25:54.272Z,5.70
2017-12-24T19:28:23.616Z,5.87
2017-12-24T19:30:51.900Z,6.50
2017-12-24T19:33:21.026Z,8.37
2017-12-24T19:35:49.304Z,5.90
2017-12-24T19:38:17.593Z,6.83
2017-12-24T19:40:45.876Z,6.13
2017-12-24T19:43:15.800Z,5.93
2017-12-24T19:45:44.051Z,5.90
2017-12-24T19:48:12.360Z,6.03
2017-12-24T19:50:41.789Z,5.40
2017-12-24T19:53:10.010Z,6.93
2017-12-24T19:55:38.321Z,5.50
2017-12-24T19:58:06.609Z,6.37
2017-12-24T20:00:35.633Z,5.70
2017-12-24T20:03:05.558Z,5.43
2017-12-24T20:05:34.604Z,4.87
2017-12-24T20:08:03.208Z,4.70
2017-12-24T20:10:33.503Z,4.53
2017-12-24T20:13:02.216Z,5.70
2017-12-24T20:15:31.387Z,5.00
2017-12-24T20:18:00.463Z,6.13
2017-12-24T20:20:28.705Z,5.83
2017-12-24T20:22:56.998Z,5.10
2017-12-24T20:25:25.239Z,4.73
2017-12-24T20:27:53.480Z,4.90
2017-12-24T20:30:21.789Z,4.87
2017-12-24T20:32:50.100Z,5.87
2017-12-24T20:35:18.501Z,4.47
2017-12-24T20:37:46.804Z,5.30
2017-12-24T20:40:15.070Z,4.80
2017-12-24T20:42:43.336Z,4.07
2017-12-24T20:45:13.321Z,5.77
2017-12-24T20:47:41.624Z,5.30
2017-12-24T20:50:10.606Z,5.70
2017-12-24T20:52:39.637Z,5.70
2017-12-24T20:55:07.898Z,6.10
2017-12-24T20:57:36.184Z,5.20
2017-12-24T21:00:04.429Z,4.67
2017-12-24T21:02:33.600Z,4.73
2017-12-24T21:05:02.784Z,4.20
2017-12-24T21:07:31.043Z,4.47
2017-12-24T21:09:59.334Z,3.83
2017-12-24T21:12:29.095Z,4.60
2017-12-24T21:14:58.195Z,3.60
2017-12-24T21:17:26.658Z,4.00
2017-12-24T21:19:54.922Z,3.70
2017-12-24T21:22:23.383Z,3.27
2017-12-24T21:24:51.629Z,3.73
2017-12-24T21:27:19.893Z,2.87
2017-12-24T21:29:48.197Z,3.73
2017-12-24T21:32:16.589Z,3.07
2017-12-24T21:34:45.634Z,2.83
2017-12-24T21:37:13.921Z,2.73
2017-12-24T21:39:42.999Z,3.60
2017-12-24T21:42:11.429Z,3.53
2017-12-24T21:44:39.684Z,3.43
2017-12-24T21:47:07.949Z,3.47
2017-12-24T21:49:36.663Z,3.13
2017-12-24T21:52:04.926Z,3.07
2017-12-24T21:54:34.142Z,3.50
2017-12-24T21:57:02.375Z,2.93
2017-12-24T21:59:30.675Z,2.50
2017-12-24T22:01:58.990Z,2.20
2017-12-24T22:04:27.409Z,2.20
2017-12-24T22:07:03.726Z,1.73
2017-12-24T22:09:32.937Z,1.83
2017-12-24T22:12:01.946Z,2.23
2017-12-24T22:14:30.237Z,1.87
2017-12-24T22:16:58.545Z,1.60
2017-12-24T22:19:26.831Z,11.40
2017-12-24T22:21:55.877Z,2.33
2017-12-24T22:24:24.129Z,2.00
2017-12-24T22:26:53.386Z,1.97
2017-12-24T22:29:21.699Z,2.07
2017-12-24T22:31:49.970Z,4.67
2017-12-24T22:34:18.220Z,2.63
2017-12-24T22:36:46.524Z,2.20
2017-12-24T22:39:15.652Z,1.80
2017-12-24T22:41:44.706Z,2.37
2017-12-24T22:44:12.966Z,2.40
2017-12-24T22:46:41.277Z,1.83
2017-12-24T22:49:09.515Z,2.40
2017-12-24T22:51:37.799Z,2.70
2017-12-24T22:54:06.048Z,4.17
2017-12-24T22:56:34.309Z,2.07
2017-12-24T22:59:04.324Z,2.73
2017-12-24T23:01:32.592Z,2.00
2017-12-24T23:04:00.858Z,5.27
2017-12-24T23:06:30.005Z,2.47
2017-12-24T23:08:58.411Z,1.90
2017-12-24T23:11:26.657Z,2.17
2017-12-24T23:13:55.166Z,3.00
2017-12-24T23:16:23.435Z,2.40
2017-12-24T23:18:51.711Z,2.63
2017-12-24T23:21:19.995Z,1.70
2017-12-24T23:23:49.157Z,2.20
2017-12-24T23:26:17.414Z,3.03
2017-12-24T23:28:45.671Z,2.30
2017-12-24T23:31:14.942Z,2.20
2017-12-24T23:33:43.793Z,2.63
2017-12-24T23:36:12.100Z,2.37
2017-12-24T23:38:40.484Z,1.93
2017-12-24T23:41:10.393Z,2.10
2017-12-24T23:43:38.669Z,1.70
2017-12-24T23:46:08.058Z,2.03
2017-12-24T23:48:37.839Z,3.33
2017-12-24T23:51:06.106Z,1.90
2017-12-24T23:53:34.348Z,2.07
2017-12-24T23:56:03.477Z,2.60
2017-12-24T23:58:31.724Z,1.97
